Espyville, Pennsylvania
Current Conditions -  °F | °C
As of 9:53 AM on Saturday 25 Oct 2014 (Local Time) from KGKJ Reporting Station
Overcast Overcast  
Wind Chill: 52°   Ceiling: 9500
Heat Index: 52°   Visibility: 10mi
Dew Point: 44°   Wind: 9mph
Humidity: 74%   Direction: 200°SSW
Pressure: 29.87"   Gusts: NA
Location:  41.6811°N, 80.4288°W
Report Text: KGKJ 251353Z AUTO 20008KT 10SM OVC095 11/07 A2987 RMK AO2 SLP117 T01110067 TSNO $
Loading
Personal Weather Stations






























Interactive Weather Map New forecast layout! Learn more

10-Day Weather Forecast

Advertisements
Track Severe Weather on mobile